createdAt,value
2023-04-07T00:01:07.961Z,8.02
2023-04-07T00:03:35.788Z,7.15
2023-04-07T00:06:03.551Z,7.35
2023-04-07T00:08:30.458Z,7.90
2023-04-07T00:10:58.635Z,7.28
2023-04-07T00:13:26.334Z,7.93
2023-04-07T00:15:53.693Z,7.97
2023-04-07T00:18:20.919Z,7.85
2023-04-07T00:20:48.270Z,7.68
2023-04-07T00:23:15.628Z,7.50
2023-04-07T00:25:43.242Z,7.90
2023-04-07T00:28:10.227Z,7.10
2023-04-07T00:30:37.563Z,7.75
2023-04-07T00:33:04.573Z,7.82
2023-04-07T00:35:36.938Z,7.78
2023-04-07T00:38:03.914Z,7.47
2023-04-07T00:40:31.417Z,7.38
2023-04-07T00:42:58.512Z,8.13
2023-04-07T00:45:25.907Z,7.68
2023-04-07T00:47:53.077Z,8.23
2023-04-07T00:50:20.563Z,7.65
2023-04-07T00:52:47.650Z,8.70
2023-04-07T00:55:15.134Z,8.82
2023-04-07T00:57:42.170Z,8.05
2023-04-07T01:00:10.542Z,7.35
2023-04-07T01:03:00.384Z,7.78
2023-04-07T01:05:46.456Z,7.70
2023-04-07T01:08:35.741Z,8.40
2023-04-07T01:11:34.035Z,7.78
2023-04-07T01:14:01.332Z,7.43
2023-04-07T01:16:32.666Z,6.78
2023-04-07T01:19:15.805Z,8.30
2023-04-07T01:24:37.027Z,6.90
2023-04-07T01:27:28.469Z,7.07
2023-04-07T01:29:57.020Z,7.93
2023-04-07T01:32:27.217Z,7.15
2023-04-07T01:34:55.582Z,6.95
2023-04-07T01:37:23.142Z,6.75
2023-04-07T01:39:50.391Z,7.07
2023-04-07T01:42:19.330Z,6.65
2023-04-07T01:44:47.792Z,7.60
2023-04-07T01:47:16.452Z,6.90
2023-04-07T01:49:45.397Z,7.28
2023-04-07T01:52:13.408Z,6.88
2023-04-07T01:54:41.256Z,7.25
2023-04-07T01:57:08.634Z,6.93
2023-04-07T01:59:35.720Z,7.30
2023-04-07T02:02:03.288Z,7.72
2023-04-07T02:04:49.089Z,7.95
2023-04-07T02:07:24.789Z,6.63
2023-04-07T02:09:56.712Z,7.90
2023-04-07T02:12:26.385Z,7.63
2023-04-07T02:14:55.001Z,7.05
2023-04-07T02:17:24.097Z,7.20
2023-04-07T02:19:52.855Z,7.22
2023-04-07T02:22:20.564Z,7.30
2023-04-07T02:24:47.573Z,6.80
2023-04-07T02:27:15.007Z,7.43
2023-04-07T02:29:42.011Z,6.32
2023-04-07T02:32:09.464Z,7.95
2023-04-07T02:34:36.640Z,6.60
2023-04-07T02:37:03.975Z,8.15
2023-04-07T02:39:30.974Z,7.57
2023-04-07T02:41:58.403Z,7.10
2023-04-07T02:44:25.480Z,7.55
2023-04-07T02:46:52.982Z,7.63
2023-04-07T02:49:19.961Z,8.93
2023-04-07T02:51:47.165Z,7.22
2023-04-07T02:54:14.130Z,11.40
2023-04-07T02:56:41.389Z,8.82
2023-04-07T02:59:08.391Z,8.85
2023-04-07T03:01:36.528Z,8.65
2023-04-07T03:04:03.654Z,8.95
2023-04-07T03:06:31.613Z,6.90
2023-04-07T03:08:58.723Z,8.02
2023-04-07T03:11:26.180Z,7.82
2023-04-07T03:13:53.447Z,7.45
2023-04-07T03:16:21.079Z,7.90
2023-04-07T03:18:48.197Z,7.30
2023-04-07T03:21:15.771Z,7.78
2023-04-07T03:23:42.707Z,8.20
2023-04-07T03:26:09.997Z,6.32
2023-04-07T03:28:36.937Z,7.20
2023-04-07T03:31:04.516Z,8.35
2023-04-07T03:33:32.056Z,8.38
2023-04-07T03:35:59.411Z,7.93
2023-04-07T03:38:26.806Z,7.22
2023-04-07T03:40:54.286Z,7.05
2023-04-07T03:43:21.247Z,8.43
2023-04-07T03:45:48.561Z,7.90
2023-04-07T03:48:15.530Z,7.50
2023-04-07T03:50:42.882Z,7.75
2023-04-07T03:53:09.916Z,7.72
2023-04-07T03:55:37.206Z,7.40
2023-04-07T03:58:04.245Z,8.43
2023-04-07T04:00:33.382Z,8.00
2023-04-07T04:03:01.212Z,7.72
2023-04-07T04:05:28.960Z,8.38
2023-04-07T04:07:56.232Z,8.15
2023-04-07T04:10:23.503Z,7.95
2023-04-07T04:12:50.636Z,7.75
2023-04-07T04:15:17.987Z,7.38
2023-04-07T04:17:45.097Z,7.35
2023-04-07T04:20:12.817Z,7.50
2023-04-07T04:22:39.846Z,8.35
2023-04-07T04:25:07.427Z,8.20
2023-04-07T04:27:34.489Z,7.88
2023-04-07T04:30:02.240Z,7.32
2023-04-07T04:32:29.304Z,7.93
2023-04-07T04:34:56.589Z,8.73
2023-04-07T04:37:23.592Z,8.60
2023-04-07T04:39:50.855Z,9.02
2023-04-07T04:42:18.467Z,9.43
2023-04-07T04:44:45.942Z,7.55
2023-04-07T04:47:12.970Z,8.63
2023-04-07T04:49:41.262Z,8.57
2023-04-07T04:52:08.696Z,8.00
2023-04-07T04:54:36.010Z,8.52
2023-04-07T04:57:03.271Z,7.72
2023-04-07T04:59:30.574Z,8.55
2023-04-07T05:01:57.623Z,9.65
2023-04-07T05:04:25.506Z,9.57
2023-04-07T05:06:52.572Z,8.43
2023-04-07T05:09:20.365Z,9.02
2023-04-07T05:11:47.352Z,9.85
2023-04-07T05:14:14.619Z,8.65
2023-04-07T05:16:41.620Z,8.48
2023-04-07T05:19:08.906Z,9.80
2023-04-07T05:21:35.992Z,10.02
2023-04-07T05:24:03.365Z,9.68
2023-04-07T05:26:30.437Z,9.95
2023-04-07T05:28:57.959Z,9.45
2023-04-07T05:31:25.134Z,11.25
2023-04-07T05:33:53.053Z,9.75
2023-04-07T05:36:20.544Z,9.35
2023-04-07T05:38:48.151Z,11.05
2023-04-07T05:41:15.618Z,9.93
2023-04-07T05:43:43.126Z,11.13
2023-04-07T05:46:10.156Z,11.75
2023-04-07T05:48:37.481Z,10.82
2023-04-07T05:51:04.559Z,11.43
2023-04-07T05:53:31.907Z,12.27
2023-04-07T05:55:59.046Z,11.75
2023-04-07T05:58:27.627Z,12.20
2023-04-07T06:00:54.600Z,11.70
2023-04-07T06:03:22.090Z,11.57
2023-04-07T06:05:49.147Z,13.85
2023-04-07T06:08:16.779Z,13.73
2023-04-07T06:10:44.378Z,11.77
2023-04-07T06:13:11.799Z,12.20
2023-04-07T06:15:38.811Z,15.00
2023-04-07T06:18:06.032Z,13.82
2023-04-07T06:20:33.070Z,13.05
2023-04-07T06:23:00.687Z,12.68
2023-04-07T06:25:27.817Z,15.55
2023-04-07T06:27:56.315Z,13.40
2023-04-07T06:30:23.346Z,13.70
2023-04-07T06:32:50.811Z,13.30
2023-04-07T06:35:17.836Z,13.93
2023-04-07T06:37:45.474Z,13.90
2023-04-07T06:40:12.699Z,14.57
2023-04-07T06:42:40.069Z,16.00
2023-04-07T06:45:07.684Z,13.57
2023-04-07T06:47:34.995Z,13.20
2023-04-07T06:50:02.029Z,12.82
2023-04-07T06:52:29.606Z,13.60
2023-04-07T06:54:56.698Z,14.02
2023-04-07T06:57:24.494Z,13.68
2023-04-07T06:59:51.512Z,13.85
2023-04-07T07:02:19.048Z,13.77
2023-04-07T07:04:46.156Z,13.02
2023-04-07T07:07:13.498Z,14.27
2023-04-07T07:09:40.518Z,13.77
2023-04-07T07:12:08.310Z,14.40
2023-04-07T07:14:35.460Z,13.48
2023-04-07T07:17:02.842Z,14.60
2023-04-07T07:19:29.953Z,14.50
2023-04-07T07:21:57.236Z,14.95
2023-04-07T07:24:24.197Z,15.43
2023-04-07T07:26:51.674Z,13.68
2023-04-07T07:29:18.788Z,13.73
2023-04-07T07:31:46.393Z,15.68
2023-04-07T07:34:13.507Z,14.07
2023-04-07T07:36:41.140Z,13.68
2023-04-07T07:39:08.217Z,15.30
2023-04-07T07:41:35.759Z,15.85
2023-04-07T07:44:02.742Z,16.00
2023-04-07T07:46:31.474Z,14.95
2023-04-07T07:48:58.598Z,15.73
2023-04-07T07:51:26.070Z,13.25
2023-04-07T07:53:53.457Z,15.52
2023-04-07T07:56:21.678Z,17.52
2023-04-07T07:58:48.683Z,16.42
2023-04-07T08:01:16.134Z,17.95
2023-04-07T08:03:43.362Z,17.50
2023-04-07T08:06:12.040Z,17.45
2023-04-07T08:08:39.103Z,17.75
2023-04-07T08:11:06.500Z,16.92
2023-04-07T08:13:33.604Z,17.08
2023-04-07T08:16:00.903Z,17.67
2023-04-07T08:18:28.056Z,18.52
2023-04-07T08:20:55.695Z,16.90
2023-04-07T08:23:22.776Z,18.45
2023-04-07T08:25:51.496Z,15.45
2023-04-07T08:28:18.606Z,17.45
2023-04-07T08:30:45.998Z,17.85
2023-04-07T08:33:12.979Z,17.70
2023-04-07T08:35:40.340Z,16.88
2023-04-07T08:38:09.084Z,18.40
2023-04-07T08:40:36.811Z,17.15
2023-04-07T08:43:08.883Z,16.60
2023-04-07T08:45:40.763Z,15.38
2023-04-07T08:48:18.939Z,15.48
2023-04-07T08:50:46.428Z,16.42
2023-04-07T08:53:16.667Z,15.38
2023-04-07T08:55:44.080Z,17.40
2023-04-07T08:58:12.578Z,16.55
2023-04-07T09:00:43.651Z,15.35
2023-04-07T09:03:11.872Z,16.90
2023-04-07T09:05:40.110Z,20.02
2023-04-07T09:08:07.117Z,17.42
2023-04-07T09:10:34.410Z,16.77
2023-04-07T09:13:01.794Z,17.08
2023-04-07T09:15:31.916Z,17.20
2023-04-07T09:17:59.616Z,17.67
2023-04-07T09:20:27.131Z,18.63
2023-04-07T09:22:54.187Z,18.33
2023-04-07T09:25:24.131Z,17.13
2023-04-07T09:28:09.245Z,17.40
2023-04-07T09:30:36.506Z,17.85
2023-04-07T09:33:03.640Z,18.23
2023-04-07T09:35:31.037Z,19.42
2023-04-07T09:38:08.982Z,19.98
2023-04-07T09:40:40.298Z,19.58
2023-04-07T09:43:14.549Z,19.65
2023-04-07T09:45:42.267Z,21.05
2023-04-07T09:48:19.598Z,20.88
2023-04-07T09:50:51.077Z,22.25
2023-04-07T09:53:20.257Z,20.45
2023-04-07T09:55:48.362Z,22.48
2023-04-07T09:58:16.584Z,20.90
2023-04-07T10:00:46.012Z,20.33
2023-04-07T10:03:13.911Z,21.10
2023-04-07T10:05:42.647Z,20.17
2023-04-07T10:08:10.226Z,22.52
2023-04-07T10:10:41.961Z,22.27
2023-04-07T10:13:09.101Z,22.23
2023-04-07T10:15:37.518Z,20.00
2023-04-07T10:18:08.514Z,20.98
2023-04-07T10:20:40.635Z,19.33
2023-04-07T10:23:24.985Z,19.80
2023-04-07T10:25:56.685Z,19.33
2023-04-07T10:28:25.826Z,19.20
2023-04-07T10:30:53.944Z,18.92
2023-04-07T10:33:58.232Z,20.15
2023-04-07T10:36:26.156Z,20.35
2023-04-07T10:39:19.640Z,20.35
2023-04-07T10:41:46.903Z,19.70
2023-04-07T10:44:38.954Z,20.45
2023-04-07T10:47:06.866Z,19.02
2023-04-07T10:49:35.256Z,19.30
2023-04-07T10:52:12.369Z,19.70
2023-04-07T10:54:40.496Z,20.70
2023-04-07T10:57:13.452Z,20.08
2023-04-07T11:00:12.686Z,21.77
2023-04-07T11:02:41.509Z,20.23
2023-04-07T11:05:21.114Z,18.40
2023-04-07T11:07:50.974Z,19.95
2023-04-07T11:10:19.604Z,19.63
2023-04-07T11:13:03.393Z,19.35
2023-04-07T11:15:30.531Z,18.70
2023-04-07T11:18:16.301Z,17.92
2023-04-07T11:20:46.120Z,20.10
2023-04-07T11:23:15.296Z,18.85
2023-04-07T11:25:47.774Z,18.05
2023-04-07T11:30:49.726Z,17.65
2023-04-07T11:33:22.296Z,18.00
2023-04-07T11:35:56.991Z,18.10
2023-04-07T11:38:47.166Z,19.13
2023-04-07T11:41:15.682Z,18.48
2023-04-07T11:43:43.159Z,20.23
2023-04-07T11:46:12.704Z,19.63
2023-04-07T11:48:42.399Z,21.13
2023-04-07T11:51:21.336Z,20.90
2023-04-07T11:53:55.927Z,20.50
2023-04-07T11:56:23.551Z,19.77
2023-04-07T11:58:52.359Z,20.02
2023-04-07T12:01:20.422Z,20.33
2023-04-07T12:04:04.664Z,20.52
2023-04-07T12:06:38.652Z,22.00
2023-04-07T12:09:06.501Z,19.90
2023-04-07T12:11:34.589Z,21.17
2023-04-07T12:14:05.177Z,21.75
2023-04-07T12:16:32.417Z,22.33
2023-04-07T12:19:00.427Z,21.90
2023-04-07T12:21:27.606Z,20.20
2023-04-07T12:23:54.929Z,21.40
2023-04-07T12:26:23.271Z,21.05
2023-04-07T12:28:51.449Z,20.33
2023-04-07T12:31:18.470Z,21.88
2023-04-07T12:33:46.831Z,21.65
2023-04-07T12:36:14.400Z,21.58
2023-04-07T12:38:42.528Z,22.08
2023-04-07T12:41:09.602Z,21.27
2023-04-07T12:43:37.014Z,22.02
2023-04-07T12:46:04.090Z,22.40
2023-04-07T12:48:31.548Z,24.10
2023-04-07T12:50:59.008Z,23.27
2023-04-07T12:53:27.320Z,22.60
2023-04-07T12:55:54.546Z,22.88
2023-04-07T12:58:22.217Z,23.95
2023-04-07T13:00:49.525Z,23.00
2023-04-07T13:03:17.729Z,25.15
2023-04-07T13:05:45.030Z,24.75
2023-04-07T13:08:13.032Z,23.15
2023-04-07T13:10:40.263Z,26.83
2023-04-07T13:13:07.974Z,22.67
2023-04-07T13:15:35.070Z,25.17
2023-04-07T13:18:02.529Z,23.50
2023-04-07T13:20:30.549Z,23.45
2023-04-07T13:23:07.469Z,24.35
2023-04-07T13:25:37.616Z,25.15
2023-04-07T13:28:06.095Z,23.67
2023-04-07T13:30:33.814Z,23.42
2023-04-07T13:33:01.622Z,24.77
2023-04-07T13:35:31.074Z,24.88
2023-04-07T13:37:58.544Z,23.25
2023-04-07T13:40:26.185Z,22.88
2023-04-07T13:42:53.941Z,24.67
2023-04-07T13:45:21.076Z,24.95
2023-04-07T13:47:48.352Z,23.92
2023-04-07T13:50:15.943Z,25.00
2023-04-07T13:52:43.476Z,22.30
2023-04-07T13:55:10.566Z,21.55
2023-04-07T13:57:37.911Z,22.70
2023-04-07T14:00:07.342Z,22.02
2023-04-07T14:02:34.689Z,21.38
2023-04-07T14:05:02.138Z,20.85
2023-04-07T14:07:29.488Z,21.58
2023-04-07T14:09:56.555Z,20.73
2023-04-07T14:12:24.493Z,20.35
2023-04-07T14:14:52.797Z,20.67
2023-04-07T14:17:20.695Z,19.27
2023-04-07T14:19:48.302Z,20.02
2023-04-07T14:22:15.601Z,19.55
2023-04-07T14:24:42.818Z,18.80
2023-04-07T14:27:10.629Z,19.80
2023-04-07T14:29:37.691Z,20.80
2023-04-07T14:32:04.980Z,20.90
2023-04-07T14:34:32.058Z,19.23
2023-04-07T14:37:00.046Z,18.45
2023-04-07T14:39:27.156Z,17.50
2023-04-07T14:41:54.494Z,18.70
2023-04-07T14:44:21.478Z,17.40
2023-04-07T14:46:49.016Z,17.83
2023-04-07T14:49:17.184Z,17.58
2023-04-07T14:51:46.062Z,17.30
2023-04-07T14:54:13.165Z,18.42
2023-04-07T14:56:41.359Z,17.58
2023-04-07T14:59:08.473Z,19.75
2023-04-07T15:01:35.967Z,17.08
2023-04-07T15:04:03.195Z,18.38
2023-04-07T15:06:31.910Z,18.65
2023-04-07T15:08:58.998Z,17.23
2023-04-07T15:11:26.340Z,17.33
2023-04-07T15:13:53.286Z,18.67
2023-04-07T15:16:20.781Z,16.88
2023-04-07T15:18:48.725Z,16.98
2023-04-07T15:21:16.640Z,17.90
2023-04-07T15:23:44.022Z,17.60
2023-04-07T15:26:12.353Z,16.55
2023-04-07T15:28:39.760Z,18.15
2023-04-07T15:31:10.366Z,17.60
2023-04-07T15:33:39.178Z,19.10
2023-04-07T15:36:09.957Z,16.45
2023-04-07T15:38:39.302Z,17.58
2023-04-07T15:41:06.801Z,18.40
2023-04-07T15:43:35.368Z,29.48
2023-04-07T15:46:02.642Z,19.75
2023-04-07T15:48:29.596Z,18.25
2023-04-07T15:50:56.904Z,14.63
2023-04-07T15:53:24.124Z,18.58
2023-04-07T15:55:54.913Z,14.10
2023-04-07T15:58:21.913Z,12.13
2023-04-07T16:00:49.445Z,17.52
2023-04-07T16:03:17.109Z,15.40
2023-04-07T16:05:44.595Z,15.68
2023-04-07T16:08:13.727Z,15.63
2023-04-07T16:10:42.234Z,13.93
2023-04-07T16:13:12.228Z,15.80
2023-04-07T16:15:41.114Z,12.48
2023-04-07T16:18:10.217Z,11.15
2023-04-07T16:20:37.673Z,13.07
2023-04-07T16:23:04.711Z,14.85
2023-04-07T16:25:32.141Z,14.57
2023-04-07T16:27:59.146Z,12.32
2023-04-07T16:30:26.541Z,13.02
2023-04-07T16:32:53.728Z,10.35
2023-04-07T16:35:21.242Z,10.57
2023-04-07T16:37:49.972Z,8.23
2023-04-07T16:40:17.358Z,8.00
2023-04-07T16:42:44.412Z,8.25
2023-04-07T16:45:11.898Z,9.07
2023-04-07T16:47:39.403Z,7.68
2023-04-07T16:50:07.534Z,7.18
2023-04-07T16:52:34.565Z,8.23
2023-04-07T16:55:02.107Z,7.20
2023-04-07T16:57:29.258Z,7.82
2023-04-07T16:59:56.888Z,7.03
2023-04-07T17:02:24.162Z,7.53
2023-04-07T17:04:51.708Z,6.38
2023-04-07T17:07:19.170Z,7.15
2023-04-07T17:09:46.793Z,6.45
2023-04-07T17:12:13.886Z,6.68
2023-04-07T17:14:41.762Z,7.35
2023-04-07T17:17:08.898Z,6.65
2023-04-07T17:19:36.800Z,7.82
2023-04-07T17:22:03.876Z,8.25
2023-04-07T17:24:31.742Z,8.52
2023-04-07T17:26:58.881Z,8.50
2023-04-07T17:29:29.161Z,8.57
2023-04-07T17:31:58.956Z,8.38
2023-04-07T17:34:26.556Z,8.13
2023-04-07T17:36:53.572Z,8.65
2023-04-07T17:39:20.930Z,8.88
2023-04-07T17:41:48.160Z,7.40
2023-04-07T17:44:16.092Z,6.05
2023-04-07T17:46:43.697Z,6.38
2023-04-07T17:49:11.142Z,5.85
2023-04-07T17:51:38.350Z,33.35
2023-04-07T17:54:06.148Z,15.82
2023-04-07T17:56:33.190Z,5.57
2023-04-07T17:59:01.260Z,12.70
2023-04-07T18:01:28.342Z,6.97
2023-04-07T18:03:56.143Z,3.25
2023-04-07T18:06:24.495Z,3.67
2023-04-07T18:08:51.959Z,2.70
2023-04-07T18:11:19.159Z,2.83
2023-04-07T18:13:47.108Z,2.70
2023-04-07T18:16:18.629Z,3.00
2023-04-07T18:18:48.806Z,7.82
2023-04-07T18:21:16.136Z,5.88
2023-04-07T18:23:43.594Z,4.72
2023-04-07T18:26:10.995Z,3.90
2023-04-07T18:28:38.623Z,4.13
2023-04-07T18:31:07.944Z,5.63
2023-04-07T18:33:36.463Z,5.07
2023-04-07T18:36:08.079Z,4.40
2023-04-07T18:38:36.656Z,2.83
2023-04-07T18:41:06.060Z,2.80
2023-04-07T18:43:33.948Z,3.30
2023-04-07T18:46:01.467Z,3.25
2023-04-07T18:48:28.976Z,3.70
2023-04-07T18:50:56.669Z,3.10
2023-04-07T18:53:25.088Z,3.22
2023-04-07T18:55:52.406Z,3.13
2023-04-07T18:58:21.023Z,3.80
2023-04-07T19:00:53.035Z,3.38
2023-04-07T19:03:21.805Z,2.95
2023-04-07T19:05:52.380Z,2.78
2023-04-07T19:08:20.093Z,3.55
2023-04-07T19:10:48.408Z,2.65
2023-04-07T19:13:18.345Z,3.22
2023-04-07T19:15:46.632Z,2.75
2023-04-07T19:18:14.395Z,3.33
2023-04-07T19:20:41.698Z,2.95
2023-04-07T19:23:09.362Z,3.13
2023-04-07T19:25:36.920Z,3.08
2023-04-07T19:28:04.236Z,3.20
2023-04-07T19:30:31.188Z,2.90
2023-04-07T19:32:58.534Z,4.40
2023-04-07T19:35:25.788Z,4.88
2023-04-07T19:37:53.952Z,4.35
2023-04-07T19:40:21.043Z,4.35
2023-04-07T19:42:48.514Z,5.05
2023-04-07T19:45:16.355Z,5.78
2023-04-07T19:47:44.507Z,7.28
2023-04-07T19:50:11.966Z,6.40
2023-04-07T19:52:39.454Z,5.70
2023-04-07T19:55:08.901Z,5.13
2023-04-07T19:57:38.496Z,4.80
2023-04-07T20:00:07.108Z,5.68
2023-04-07T20:02:34.683Z,5.57
2023-04-07T20:05:02.110Z,6.90
2023-04-07T20:07:31.044Z,7.45
2023-04-07T20:09:58.098Z,7.45
2023-04-07T20:12:25.580Z,8.27
2023-04-07T20:14:52.515Z,8.10
2023-04-07T20:17:20.483Z,7.57
2023-04-07T20:19:47.971Z,7.07
2023-04-07T20:22:15.673Z,6.80
2023-04-07T20:24:42.587Z,8.57
2023-04-07T20:27:09.870Z,7.60
2023-04-07T20:29:37.010Z,6.22
2023-04-07T20:32:04.387Z,5.95
2023-04-07T20:34:31.462Z,6.13
2023-04-07T20:36:58.675Z,6.75
2023-04-07T20:39:25.727Z,6.85
2023-04-07T20:41:53.255Z,6.43
2023-04-07T20:44:20.177Z,6.13
2023-04-07T20:46:47.571Z,6.18
2023-04-07T20:49:14.749Z,7.05
2023-04-07T20:51:42.067Z,6.18
2023-04-07T20:54:09.123Z,7.50
2023-04-07T20:56:36.916Z,6.68
2023-04-07T20:59:03.864Z,6.95
2023-04-07T21:01:31.551Z,7.88
2023-04-07T21:04:00.844Z,8.38
2023-04-07T21:06:28.284Z,8.60
2023-04-07T21:08:55.759Z,8.77
2023-04-07T21:11:23.300Z,9.57
2023-04-07T21:13:50.364Z,8.45
2023-04-07T21:16:17.754Z,8.80
2023-04-07T21:18:44.936Z,7.43
2023-04-07T21:21:12.768Z,7.82
2023-04-07T21:23:40.825Z,7.57
2023-04-07T21:26:08.303Z,6.75
2023-04-07T21:28:35.441Z,7.97
2023-04-07T21:31:04.110Z,8.52
2023-04-07T21:33:31.438Z,7.20
2023-04-07T21:36:00.688Z,7.22
2023-04-07T21:38:28.089Z,8.70
2023-04-07T21:40:57.538Z,9.55
2023-04-07T21:43:24.820Z,9.32
2023-04-07T21:45:52.334Z,9.90
2023-04-07T21:48:21.167Z,9.50
2023-04-07T21:50:48.416Z,11.38
2023-04-07T21:53:15.356Z,9.82
2023-04-07T21:55:42.892Z,10.80
2023-04-07T21:58:11.116Z,10.55
2023-04-07T22:00:39.230Z,10.52
2023-04-07T22:03:07.698Z,10.88
2023-04-07T22:05:35.504Z,9.70
2023-04-07T22:08:03.241Z,12.88
2023-04-07T22:10:31.394Z,10.55
2023-04-07T22:12:58.349Z,11.07
2023-04-07T22:15:25.711Z,11.63
2023-04-07T22:17:52.862Z,10.70
2023-04-07T22:20:20.201Z,11.88
2023-04-07T22:22:47.095Z,11.55
2023-04-07T22:25:14.399Z,10.63
2023-04-07T22:27:41.309Z,9.80
2023-04-07T22:30:10.883Z,10.77
2023-04-07T22:32:37.921Z,10.10
2023-04-07T22:35:05.905Z,10.73
2023-04-07T22:37:32.907Z,11.02
2023-04-07T22:40:00.558Z,9.73
2023-04-07T22:42:27.549Z,9.90
2023-04-07T22:44:54.925Z,9.82
2023-04-07T22:47:24.640Z,10.10
2023-04-07T22:49:52.287Z,10.10
2023-04-07T22:52:19.562Z,9.57
2023-04-07T22:54:46.812Z,10.52
2023-04-07T22:57:13.828Z,9.70
2023-04-07T22:59:41.116Z,10.02
2023-04-07T23:02:08.092Z,9.60
2023-04-07T23:04:35.760Z,10.10
2023-04-07T23:07:02.760Z,10.45
2023-04-07T23:09:30.320Z,9.50
2023-04-07T23:11:57.272Z,8.90
2023-04-07T23:14:24.684Z,10.07
2023-04-07T23:16:51.868Z,9.18
2023-04-07T23:19:19.339Z,8.90
2023-04-07T23:21:46.274Z,9.10
2023-04-07T23:24:13.768Z,9.70
2023-04-07T23:26:40.777Z,10.18
2023-04-07T23:29:08.377Z,8.95
2023-04-07T23:31:35.970Z,8.77
2023-04-07T23:34:04.310Z,10.45
2023-04-07T23:36:31.589Z,9.02
2023-04-07T23:38:59.186Z,10.18
2023-04-07T23:41:26.185Z,9.77
2023-04-07T23:43:53.479Z,10.10
2023-04-07T23:46:21.125Z,10.82
2023-04-07T23:48:49.055Z,9.85
2023-04-07T23:51:16.310Z,10.23
2023-04-07T23:53:43.540Z,9.82
2023-04-07T23:56:10.547Z,9.88
2023-04-07T23:58:37.837Z,9.90
